Time;durP1;ratioP1;P1;durP2;ratioP2;P2;SDS_P1;SDS_P2;PMS_P1;PMS_P2;Temp;Humidity;BMP_temperature;BMP_pressure;BME280_temperature;BME280_humidity;BME280_pressure;Samples;Min_cycle;Max_cycle;Signal;HPM_P1;HPM_P2
2023/09/06 00:00:45;;;;;;;10.38;5.57;;;;;;;18.70;78.58;100932.38;5014524;28;20373;-45
2023/09/06 00:03:13;;;;;;;11.13;4.72;;;;;;;18.68;79.07;100931.16;5013500;28;20483;-48
2023/09/06 00:05:43;;;;;;;9.75;5.43;;;;;;;18.67;79.01;100932.34;5000431;28;20061;-44
2023/09/06 00:08:16;;;;;;;10.93;5.80;;;;;;;18.62;78.90;100930.75;5009842;28;20145;-54
2023/09/06 00:10:45;;;;;;;10.07;5.82;;;;;;;18.59;79.13;100931.53;4998846;28;20061;-45
2023/09/06 00:13:13;;;;;;;12.20;5.88;;;;;;;18.59;79.40;100931.53;5012336;28;20050;-44
2023/09/06 00:15:40;;;;;;;15.85;6.45;;;;;;;18.57;79.36;100935.94;5009767;28;20046;-47
2023/09/06 00:18:07;;;;;;;12.48;5.50;;;;;;;18.57;79.21;100933.13;5010373;28;20136;-46
2023/09/06 00:20:35;;;;;;;10.60;5.80;;;;;;;18.57;79.28;100921.91;5013799;28;20046;-47
2023/09/06 00:23:04;;;;;;;11.13;5.95;;;;;;;18.59;79.09;100925.91;4991413;28;20054;-47
2023/09/06 00:25:32;;;;;;;9.10;5.53;;;;;;;18.60;79.01;100935.16;5012683;28;20057;-45
2023/09/06 00:28:03;;;;;;;9.23;5.57;;;;;;;18.61;79.24;100933.97;4996628;28;20504;-45
2023/09/06 00:30:31;;;;;;;13.43;6.20;;;;;;;18.62;79.51;100935.53;5014284;28;20050;-45
2023/09/06 00:32:59;;;;;;;7.45;4.55;;;;;;;18.61;79.38;100931.94;5013044;28;20050;-46
2023/09/06 00:35:26;;;;;;;13.00;6.03;;;;;;;18.61;79.43;100929.13;5013083;28;20169;-44
2023/09/06 00:37:54;;;;;;;9.93;5.43;;;;;;;18.60;79.80;100930.34;5013710;28;20042;-44
2023/09/06 00:40:22;;;;;;;19.15;7.32;;;;;;;18.58;79.83;100929.94;5013811;28;20046;-46
2023/09/06 00:42:56;;;;;;;10.93;5.55;;;;;;;18.59;79.71;100925.91;4995022;28;20054;-45
2023/09/06 00:45:26;;;;;;;10.40;6.45;;;;;;;18.56;79.54;100932.31;4996043;28;20136;-45
2023/09/06 00:47:55;;;;;;;9.93;5.43;;;;;;;18.53;79.91;100927.50;4996159;28;20053;-44
2023/09/06 00:50:23;;;;;;;7.90;4.90;;;;;;;18.50;79.88;100928.31;5006167;28;20169;-49
2023/09/06 00:52:53;;;;;;;10.23;5.57;;;;;;;18.48;79.98;100918.69;5003262;28;20038;-44
2023/09/06 00:55:20;;;;;;;11.88;6.13;;;;;;;18.50;79.83;100930.31;5010890;28;20050;-45
2023/09/06 00:57:47;;;;;;;11.77;6.40;;;;;;;18.45;79.80;100928.66;5010935;28;20045;-45
2023/09/06 01:00:17;;;;;;;16.95;8.43;;;;;;;18.42;80.05;100925.84;4992474;28;20055;-44
2023/09/06 01:02:47;;;;;;;12.07;5.53;;;;;;;18.38;80.17;100925.81;5007951;28;20385;-45
2023/09/06 01:05:16;;;;;;;24.10;9.75;;;;;;;18.36;80.34;100928.19;5014815;28;20045;-45
2023/09/06 01:07:48;;;;;;;11.63;5.70;;;;;;;18.34;80.17;100930.59;5014035;28;20385;-45
2023/09/06 01:10:15;;;;;;;9.73;5.40;;;;;;;18.35;80.44;100915.38;5010977;28;20073;-44
2023/09/06 01:12:42;;;;;;;10.07;5.70;;;;;;;18.35;80.34;100920.97;5005162;28;20061;-45
2023/09/06 01:15:10;;;;;;;13.63;5.82;;;;;;;18.33;80.48;100917.78;5008110;28;20045;-50
2023/09/06 01:17:41;;;;;;;11.15;5.88;;;;;;;18.31;80.88;100920.19;4969497;28;20042;-48
2023/09/06 01:20:17;;;;;;;11.10;6.32;;;;;;;18.29;81.03;100911.38;4969221;28;20186;-48
2023/09/06 01:22:53;;;;;;;9.30;6.35;;;;;;;18.26;81.15;100906.53;4968584;28;20054;-48
2023/09/06 01:25:20;;;;;;;12.55;7.68;;;;;;;18.21;81.12;100904.13;5010031;28;20464;-45
2023/09/06 01:27:48;;;;;;;13.95;7.57;;;;;;;18.19;81.43;100901.69;5010002;28;20046;-44
2023/09/06 01:30:15;;;;;;;16.30;7.75;;;;;;;18.18;81.13;100904.91;5012746;28;20046;-45
2023/09/06 01:32:41;;;;;;;13.20;8.38;;;;;;;18.16;81.47;100901.69;5012616;28;20060;-50
2023/09/06 01:35:10;;;;;;;11.52;7.72;;;;;;;18.14;81.52;100904.06;5012709;28;20096;-44
2023/09/06 01:37:37;;;;;;;11.90;7.55;;;;;;;18.11;81.60;100910.44;5012717;28;20048;-44
2023/09/06 01:40:39;;;;;;;12.20;6.97;;;;;;;18.10;81.98;100914.47;5010428;28;20427;-45
2023/09/06 01:42:58;;;;;;;15.80;7.70;;;;;;;18.10;81.76;100915.28;5004418;28;20041;-44
2023/09/06 01:45:29;;;;;;;13.57;7.45;;;;;;;18.10;81.60;100906.88;5011986;28;20053;-45
2023/09/06 01:47:58;;;;;;;13.23;7.88;;;;;;;18.10;81.66;100906.88;5007147;28;20065;-45
2023/09/06 01:50:24;;;;;;;16.95;8.60;;;;;;;18.08;81.89;100911.25;5011595;28;20045;-44
2023/09/06 01:52:52;;;;;;;16.17;9.00;;;;;;;18.07;81.96;100910.44;5011628;28;20054;-48
2023/09/06 01:55:18;;;;;;;12.77;7.70;;;;;;;18.05;82.16;100912.03;5012404;28;20050;-44
2023/09/06 01:57:45;;;;;;;13.90;7.60;;;;;;;18.02;82.03;100912.81;5009943;28;20507;-46
2023/09/06 02:00:46;;;;;;;15.93;8.50;;;;;;;18.01;82.24;100908.41;4992336;28;20058;-44
2023/09/06 02:03:07;;;;;;;14.95;6.90;;;;;;;17.98;82.43;100909.16;5004762;28;20050;-49
2023/09/06 02:05:35;;;;;;;13.30;7.35;;;;;;;17.96;82.32;100917.97;5010307;28;20072;-45
2023/09/06 02:08:04;;;;;;;18.27;8.82;;;;;;;17.93;82.50;100909.53;5012229;28;20132;-46
2023/09/06 02:10:30;;;;;;;13.57;8.05;;;;;;;17.90;82.57;100913.94;5009904;28;20058;-44
2023/09/06 02:12:57;;;;;;;15.32;8.45;;;;;;;17.87;82.82;100917.50;5008103;28;20046;-44
2023/09/06 02:15:24;;;;;;;12.23;7.80;;;;;;;17.83;83.06;100911.09;5001058;28;20034;-44
2023/09/06 02:17:52;;;;;;;14.80;7.60;;;;;;;17.82;82.91;100922.72;5015924;28;20105;-44
2023/09/06 02:20:20;;;;;;;13.95;8.07;;;;;;;17.78;83.18;100919.06;5005412;28;20419;-45
2023/09/06 02:22:51;;;;;;;10.43;6.82;;;;;;;17.74;83.20;100919.03;5006830;28;20048;-45
2023/09/06 02:25:21;;;;;;;14.18;8.25;;;;;;;17.76;83.32;100927.06;5006877;28;20042;-45
2023/09/06 02:27:49;;;;;;;13.82;9.02;;;;;;;17.73;83.24;100922.22;5003254;28;20042;-44
2023/09/06 02:30:15;;;;;;;14.70;8.30;;;;;;;17.68;83.43;100920.59;5007781;28;20077;-47
2023/09/06 02:32:42;;;;;;;13.98;8.40;;;;;;;17.66;83.60;100911.75;5011277;28;20484;-44
2023/09/06 02:35:09;;;;;;;17.17;8.73;;;;;;;17.66;83.76;100922.19;5011738;28;20064;-45
2023/09/06 02:37:36;;;;;;;15.75;9.63;;;;;;;17.62;83.67;100925.75;5011468;28;20041;-47
2023/09/06 02:40:12;;;;;;;11.52;7.85;;;;;;;17.61;83.89;100931.72;5009699;28;20420;-44
2023/09/06 02:42:43;;;;;;;13.85;8.15;;;;;;;17.60;83.90;100921.75;5010749;28;20041;-45
2023/09/06 02:45:12;;;;;;;17.08;8.40;;;;;;;17.57;83.80;100925.31;5011747;28;20133;-45
2023/09/06 02:47:48;;;;;;;10.52;7.85;;;;;;;17.55;83.86;100922.09;5011381;28;20061;-44
2023/09/06 02:50:22;;;;;;;14.73;9.05;;;;;;;17.53;83.96;100919.69;5013092;28;20054;-45
2023/09/06 02:52:53;;;;;;;11.55;7.88;;;;;;;17.52;83.92;100923.66;5007745;28;20470;-48
2023/09/06 02:55:21;;;;;;;14.30;8.02;;;;;;;17.49;84.05;100923.63;5009999;28;20042;-45
2023/09/06 02:57:49;;;;;;;17.10;9.70;;;;;;;17.49;83.96;100918.00;5010141;28;20407;-46
2023/09/06 03:02:55;;;;;;;21.10;8.48;;;;;;;17.46;84.04;100904.78;4989748;23;20562;-46
2023/09/06 03:05:22;;;;;;;13.73;8.48;;;;;;;17.43;84.30;100925.97;5008687;28;20137;-44
2023/09/06 03:07:49;;;;;;;12.85;8.50;;;;;;;17.39;84.11;100930.75;5012812;28;20050;-46
2023/09/06 03:10:19;;;;;;;13.63;8.82;;;;;;;17.41;84.29;100945.16;5010035;28;20050;-46
2023/09/06 03:12:47;;;;;;;13.23;8.02;;;;;;;17.39;84.31;100938.34;5005723;28;20513;-45
2023/09/06 03:15:15;;;;;;;12.73;7.20;;;;;;;17.36;84.28;100937.09;5009230;28;20091;-47
2023/09/06 03:17:46;;;;;;;16.25;8.60;;;;;;;17.33;84.38;100934.28;5010881;28;20057;-45
2023/09/06 03:20:31;;;;;;;15.45;8.43;;;;;;;17.29;84.46;100939.03;5009828;28;20391;-45
2023/09/06 03:23:00;;;;;;;13.30;8.77;;;;;;;17.26;84.75;100937.00;5010190;28;20139;-47
2023/09/06 03:25:29;;;;;;;11.13;8.10;;;;;;;17.24;84.76;100942.97;5015576;28;20030;-45
2023/09/06 03:28:00;;;;;;;14.77;8.65;;;;;;;17.23;84.87;100949.78;5012975;28;20506;-44
2023/09/06 03:30:29;;;;;;;17.27;8.30;;;;;;;17.19;84.79;100965.72;5011325;28;20112;-45
2023/09/06 03:32:58;;;;;;;18.35;11.05;;;;;;;17.17;85.14;100967.28;5013711;28;20542;-46
2023/09/06 03:35:25;;;;;;;12.18;8.60;;;;;;;17.15;85.23;100962.09;5013547;28;20443;-44
2023/09/06 03:37:52;;;;;;;13.40;9.82;;;;;;;17.14;85.15;100965.25;5013860;28;20034;-46
2023/09/06 03:40:42;;;;;;;16.10;8.55;;;;;;;17.11;85.25;100969.63;5015707;28;20132;-46
2023/09/06 03:43:19;;;;;;;18.85;9.18;;;;;;;17.09;85.32;100969.22;5008254;28;20087;-45
2023/09/06 03:45:51;;;;;;;16.90;8.60;;;;;;;17.07;85.25;100966.00;5011494;28;20046;-48
2023/09/06 03:48:22;;;;;;;17.02;10.20;;;;;;;17.02;85.54;100960.75;5013941;28;20049;-46
2023/09/06 03:50:53;;;;;;;13.52;8.70;;;;;;;16.98;85.71;100971.09;5012914;28;20049;-45
2023/09/06 03:53:21;;;;;;;14.02;8.02;;;;;;;16.97;85.74;100966.69;5013524;28;20104;-45
2023/09/06 03:55:49;;;;;;;20.33;10.57;;;;;;;16.96;85.64;100965.09;5026614;28;20034;-44
2023/09/06 03:58:16;;;;;;;15.50;8.63;;;;;;;16.92;85.92;100962.22;5014453;28;20396;-50
2023/09/06 04:00:44;;;;;;;10.60;8.70;;;;;;;16.92;85.80;100975.41;5013761;28;20121;-45
2023/09/06 04:03:11;;;;;;;15.80;9.27;;;;;;;16.91;85.92;100966.25;5013080;28;20068;-46
2023/09/06 04:05:43;;;;;;;16.48;10.27;;;;;;;16.90;85.86;100970.22;5012721;28;20111;-47
2023/09/06 04:08:11;;;;;;;14.63;9.35;;;;;;;16.90;85.79;100966.59;5008644;28;20503;-45
2023/09/06 04:10:40;;;;;;;17.65;9.25;;;;;;;16.89;85.78;100965.78;5013841;28;20570;-45
2023/09/06 04:13:10;;;;;;;16.55;9.65;;;;;;;16.86;85.79;100968.56;5013564;28;20089;-45
2023/09/06 04:15:38;;;;;;;14.77;9.07;;;;;;;16.85;86.02;100964.97;5014365;28;20049;-45
2023/09/06 04:18:07;;;;;;;15.45;9.65;;;;;;;16.85;85.96;100969.75;5011568;28;20046;-47
2023/09/06 04:20:36;;;;;;;13.30;9.82;;;;;;;16.84;86.07;100971.72;5013329;28;20081;-45
2023/09/06 04:23:05;;;;;;;17.98;9.65;;;;;;;16.84;85.98;100973.72;5013913;28;20096;-46
2023/09/06 04:25:43;;;;;;;14.32;9.40;;;;;;;16.85;86.12;100969.75;5013988;28;20041;-46
2023/09/06 04:28:15;;;;;;;17.50;9.65;;;;;;;16.82;85.96;100964.91;5012069;28;20050;-44
2023/09/06 04:30:45;;;;;;;15.40;9.52;;;;;;;16.80;85.94;100964.50;5015745;28;20451;-45
2023/09/06 04:33:14;;;;;;;15.38;9.07;;;;;;;16.77;85.92;100973.66;5009629;28;20042;-45
2023/09/06 04:35:46;;;;;;;25.42;12.23;;;;;;;16.75;86.16;100973.22;5012757;28;20136;-44
2023/09/06 04:38:20;;;;;;;15.70;10.45;;;;;;;16.74;86.18;100977.19;5012404;28;20049;-47
2023/09/06 04:40:47;;;;;;;12.80;9.02;;;;;;;16.69;86.27;100974.75;5015483;28;20060;-50
2023/09/06 04:43:16;;;;;;;16.02;10.70;;;;;;;16.68;86.31;100984.34;5013013;28;20125;-52
2023/09/06 04:45:46;;;;;;;17.80;10.73;;;;;;;16.66;86.39;100975.50;5012317;28;20046;-45
2023/09/06 04:48:16;;;;;;;17.20;10.45;;;;;;;16.64;86.61;100977.88;5013627;28;20704;-45
2023/09/06 04:50:45;;;;;;;18.13;9.93;;;;;;;16.61;86.75;100967.44;5011702;28;20450;-46
2023/09/06 04:53:17;;;;;;;20.98;8.52;;;;;;;16.60;86.84;100965.88;5011686;28;20034;-44
2023/09/06 04:55:46;;;;;;;;;;;;;;;16.58;86.75;100971.00;5015003;28;20053;-44
2023/09/06 04:58:14;;;;;;;18.48;11.50;;;;;;;16.57;86.39;100975.00;5011106;28;19932;-45
2023/09/06 05:00:47;;;;;;;12.90;10.13;;;;;;;16.56;86.40;100970.59;5024867;28;20050;-52
2023/09/06 05:03:19;;;;;;;19.77;10.88;;;;;;;16.54;86.54;100975.75;5010309;28;20056;-45
2023/09/06 05:05:47;;;;;;;17.83;10.93;;;;;;;16.51;86.62;100968.91;5015299;28;20455;-47
2023/09/06 05:08:14;;;;;;;21.05;11.45;;;;;;;16.51;86.89;100973.69;5011263;28;20045;-47
2023/09/06 05:10:41;;;;;;;21.85;11.18;;;;;;;16.49;87.06;100976.06;5010633;28;20686;-47
2023/09/06 05:13:08;;;;;;;21.10;11.00;;;;;;;16.49;86.86;100976.06;5015280;28;20045;-45
2023/09/06 05:15:36;;;;;;;13.63;9.60;;;;;;;16.49;86.84;100984.44;5011242;28;20103;-45
2023/09/06 05:18:04;;;;;;;19.60;9.93;;;;;;;16.44;87.03;100980.78;5013902;28;20376;-52
2023/09/06 05:20:37;;;;;;;17.75;11.48;;;;;;;16.44;87.08;100980.78;5012167;28;20053;-48
2023/09/06 05:23:06;;;;;;;16.90;12.18;;;;;;;16.44;86.93;100980.78;5011560;28;20048;-50
2023/09/06 05:25:34;;;;;;;21.35;12.98;;;;;;;16.44;87.15;100986.38;5013109;28;20042;-50
2023/09/06 05:28:08;;;;;;;20.75;12.32;;;;;;;16.42;87.08;100971.97;5015314;28;20565;-46
2023/09/06 05:30:40;;;;;;;19.13;11.23;;;;;;;16.39;87.14;100972.75;5012907;28;20121;-45
2023/09/06 05:33:07;;;;;;;28.73;12.45;;;;;;;16.36;87.22;100976.28;5011763;28;20129;-44
2023/09/06 05:35:34;;;;;;;19.17;12.02;;;;;;;16.35;87.21;100969.09;5012319;28;20473;-46
2023/09/06 05:38:05;;;;;;;20.77;12.95;;;;;;;16.33;87.32;100971.47;5012605;28;20049;-45
2023/09/06 05:40:33;;;;;;;20.48;13.15;;;;;;;16.31;87.57;100971.03;5012353;28;20042;-45
2023/09/06 05:43:00;;;;;;;18.35;10.40;;;;;;;16.29;87.68;100969.78;5011604;28;20044;-45
2023/09/06 05:45:27;;;;;;;20.98;13.25;;;;;;;16.28;87.69;100965.41;5013324;28;20611;-46
2023/09/06 05:47:54;;;;;;;26.42;13.55;;;;;;;16.28;87.71;100977.38;5012669;28;20049;-46
2023/09/06 05:50:21;;;;;;;20.05;12.75;;;;;;;16.27;87.88;100978.56;5012465;28;20058;-50
2023/09/06 05:52:48;;;;;;;22.73;15.18;;;;;;;16.25;87.96;100977.34;5011405;28;20054;-45
2023/09/06 05:55:15;;;;;;;19.30;12.93;;;;;;;16.24;87.85;100976.53;5010310;28;20065;-47
2023/09/06 05:57:41;;;;;;;17.35;11.60;;;;;;;16.25;87.88;100977.34;5011838;28;20103;-46
2023/09/06 06:00:21;;;;;;;19.33;13.32;;;;;;;16.25;87.96;100983.75;5011867;28;20042;-49
2023/09/06 06:02:49;;;;;;;22.65;12.95;;;;;;;16.26;87.81;100984.53;5007249;28;20054;-46
2023/09/06 06:05:18;;;;;;;19.00;11.45;;;;;;;16.25;87.95;100989.31;5010298;28;20595;-47
2023/09/06 06:07:46;;;;;;;18.40;11.93;;;;;;;16.25;88.15;100996.91;5010749;28;20052;-45
2023/09/06 06:10:13;;;;;;;18.67;12.75;;;;;;;16.25;88.29;101000.50;5010645;28;20042;-45
2023/09/06 06:12:41;;;;;;;20.63;13.55;;;;;;;16.26;88.18;100999.31;5010815;28;20046;-45
2023/09/06 06:15:09;;;;;;;18.17;11.73;;;;;;;16.27;88.44;101009.31;5012842;28;20415;-46
2023/09/06 06:17:36;;;;;;;26.00;14.60;;;;;;;16.28;88.45;101005.31;5005756;28;20046;-50
2023/09/06 06:20:06;;;;;;;16.05;11.43;;;;;;;16.29;88.56;101012.53;5011296;28;20065;-45
2023/09/06 06:22:38;;;;;;;25.95;14.07;;;;;;;16.34;88.50;101017.78;5018513;28;20057;-46
2023/09/06 06:25:07;;;;;;;19.85;13.43;;;;;;;16.39;88.52;101022.22;5009172;28;20041;-45
2023/09/06 06:27:34;;;;;;;25.52;12.48;;;;;;;16.43;88.51;101015.53;5013502;28;20115;-46
2023/09/06 06:30:01;;;;;;;15.63;10.88;;;;;;;16.48;88.67;101019.97;5012828;28;20063;-45
2023/09/06 06:32:28;;;;;;;18.85;11.38;;;;;;;16.53;88.82;101016.88;5009360;28;20057;-46
2023/09/06 06:34:56;;;;;;;17.98;10.40;;;;;;;16.60;88.89;101021.78;5010337;28;20060;-51
2023/09/06 06:37:23;;;;;;;21.10;13.32;;;;;;;16.67;88.88;101019.06;5018596;28;20046;-51
2023/09/06 06:39:50;;;;;;;26.38;13.55;;;;;;;16.73;88.93;101023.91;5008110;28;20041;-46
2023/09/06 06:42:17;;;;;;;25.83;13.25;;;;;;;16.81;89.07;101024.84;5005953;28;20069;-51
2023/09/06 06:44:47;;;;;;;23.85;13.90;;;;;;;16.89;89.34;101034.94;5011033;28;20056;-46
2023/09/06 06:47:14;;;;;;;21.35;14.32;;;;;;;16.96;89.03;101032.22;5011642;28;20045;-45
2023/09/06 06:49:41;;;;;;;22.75;14.82;;;;;;;17.03;89.26;101037.88;5011241;28;20045;-46
2023/09/06 06:52:08;;;;;;;30.08;14.90;;;;;;;17.11;89.00;101031.19;5011420;28;20125;-47
2023/09/06 06:54:39;;;;;;;22.02;15.45;;;;;;;17.18;89.21;101036.88;5010603;28;20136;-45
2023/09/06 06:57:09;;;;;;;22.38;13.32;;;;;;;17.25;89.19;101033.34;5011847;28;20038;-46
2023/09/06 06:59:36;;;;;;;24.25;15.98;;;;;;;17.31;89.30;101041.00;5011061;28;20046;-46
2023/09/06 07:02:03;;;;;;;26.92;17.60;;;;;;;17.37;89.49;101047.84;5010578;28;20066;-46
2023/09/06 07:04:31;;;;;;;34.50;18.58;;;;;;;17.41;89.74;101045.91;5010448;28;20065;-46
2023/09/06 07:06:58;;;;;;;31.38;17.70;;;;;;;17.43;89.49;101043.53;5012739;28;20034;-47
2023/09/06 07:09:25;;;;;;;23.13;16.50;;;;;;;17.45;90.02;101041.16;5009998;28;20095;-46
2023/09/06 07:11:52;;;;;;;24.70;15.63;;;;;;;17.51;89.90;101047.19;5011166;28;20120;-45
2023/09/06 07:14:18;;;;;;;27.83;17.02;;;;;;;17.55;89.92;101060.06;5010199;28;20104;-46
2023/09/06 07:16:45;;;;;;;30.42;16.88;;;;;;;17.61;90.12;101068.94;5008877;28;20781;-45
2023/09/06 07:19:12;;;;;;;27.90;17.02;;;;;;;17.67;90.07;101066.59;5010468;28;20491;-45
2023/09/06 07:21:40;;;;;;;34.88;16.98;;;;;;;17.74;90.29;101078.66;5004564;28;20045;-45
2023/09/06 07:24:09;;;;;;;26.80;15.48;;;;;;;17.82;90.32;101082.34;5014554;28;20045;-44
2023/09/06 07:26:36;;;;;;;27.17;16.42;;;;;;;17.86;90.23;101083.16;5016389;28;20049;-44
2023/09/06 07:29:03;;;;;;;28.30;16.20;;;;;;;17.92;90.42;101087.25;5012884;28;20076;-44
2023/09/06 07:31:30;;;;;;;26.85;16.75;;;;;;;17.95;90.37;101083.66;5005143;28;20064;-53
2023/09/06 07:33:58;;;;;;;25.10;16.25;;;;;;;17.98;90.47;101080.88;5008223;28;20054;-50
2023/09/06 07:36:25;;;;;;;25.92;16.70;;;;;;;18.01;90.57;101074.50;5009348;28;20100;-46
2023/09/06 07:38:54;;;;;;;23.35;16.58;;;;;;;18.04;90.59;101075.72;5007116;28;20046;-44
2023/09/06 07:41:22;;;;;;;21.08;15.30;;;;;;;18.07;90.85;101083.34;5010160;28;20046;-45
2023/09/06 07:43:49;;;;;;;22.90;15.98;;;;;;;18.10;91.17;101079.78;5006994;28;20056;-50
2023/09/06 07:46:16;;;;;;;26.58;16.80;;;;;;;18.13;91.00;101085.44;5004770;28;20046;-43
2023/09/06 07:48:43;;;;;;;26.85;16.33;;;;;;;18.16;91.34;101081.03;5007729;28;20083;-44
2023/09/06 07:51:12;;;;;;;27.13;17.55;;;;;;;18.20;91.44;101081.88;5010884;28;20559;-49
2023/09/06 07:53:39;;;;;;;20.33;15.18;;;;;;;18.22;91.18;101090.69;5009465;28;20050;-44
2023/09/06 07:56:07;;;;;;;23.88;15.18;;;;;;;18.25;91.01;101096.31;5010680;28;20038;-47
2023/09/06 07:58:34;;;;;;;24.75;14.05;;;;;;;18.32;91.26;101106.75;5005655;28;20064;-49
2023/09/06 08:01:03;;;;;;;34.63;16.08;;;;;;;18.37;91.23;101109.22;5010920;28;20056;-44
2023/09/06 08:03:44;;;;;;;28.08;14.68;;;;;;;18.42;91.48;101103.25;5008668;28;20054;-48
2023/09/06 08:06:12;;;;;;;23.45;13.23;;;;;;;18.49;91.59;101110.94;5006801;28;20054;-44
2023/09/06 08:08:39;;;;;;;21.00;13.20;;;;;;;18.57;91.43;101119.00;5009382;28;20407;-44
2023/09/06 08:11:05;;;;;;;22.67;14.60;;;;;;;18.65;91.64;101120.66;5015861;28;20050;-45
2023/09/06 08:13:33;;;;;;;29.20;14.50;;;;;;;18.73;91.91;101113.09;5013391;28;20510;-43
2023/09/06 08:16:00;;;;;;;25.15;13.63;;;;;;;18.82;92.03;101116.38;5018833;28;20081;-44
2023/09/06 08:18:28;;;;;;;21.17;15.43;;;;;;;18.90;92.03;101125.63;5012757;28;20129;-44
2023/09/06 08:20:56;;;;;;;19.17;14.27;;;;;;;18.99;92.24;101124.06;5012820;28;20045;-44
2023/09/06 08:23:23;;;;;;;20.20;13.27;;;;;;;19.10;92.27;101129.72;5009171;28;20042;-44
2023/09/06 08:25:49;;;;;;;23.08;13.07;;;;;;;19.20;92.94;101137.38;5015192;28;20054;-44
2023/09/06 08:28:18;;;;;;;22.27;13.45;;;;;;;19.33;93.82;101135.84;5011846;28;20381;-46
2023/09/06 08:30:46;;;;;;;22.20;13.32;;;;;;;19.47;94.41;101141.56;5009960;28;20054;-44
2023/09/06 08:33:14;;;;;;;20.10;14.57;;;;;;;19.62;96.36;101151.63;5013160;28;20049;-44
2023/09/06 08:35:41;;;;;;;25.45;14.63;;;;;;;19.79;97.22;101150.88;5011538;28;20500;-46
2023/09/06 08:38:09;;;;;;;23.50;13.77;;;;;;;19.97;98.87;101151.72;5012490;28;20447;-45
2023/09/06 08:40:39;;;;;;;28.67;13.98;;;;;;;20.21;100.00;101154.94;5012523;28;20046;-45
2023/09/06 08:43:09;;;;;;;19.98;13.32;;;;;;;20.46;100.00;101161.41;5006548;28;20052;-45
2023/09/06 08:45:41;;;;;;;27.67;14.32;;;;;;;20.76;100.00;101169.44;5012458;28;20049;-45
2023/09/06 08:48:08;;;;;;;19.27;12.67;;;;;;;21.13;100.00;101162.13;5011504;28;20041;-45
2023/09/06 08:50:36;;;;;;;15.60;11.20;;;;;;;21.75;100.00;101169.91;5009260;28;20461;-48
2023/09/06 08:53:05;;;;;;;17.90;11.25;;;;;;;22.53;97.46;101169.41;5013085;28;20067;-45
2023/09/06 08:55:33;;;;;;;15.93;11.27;;;;;;;23.37;91.47;101179.88;5010426;28;20054;-46
2023/09/06 08:58:03;;;;;;;19.05;11.30;;;;;;;24.28;86.05;101187.53;5012398;28;20045;-47
2023/09/06 09:00:30;;;;;;;14.05;9.10;;;;;;;25.30;80.03;101191.38;5011549;28;20041;-48
2023/09/06 09:02:58;;;;;;;19.10;11.23;;;;;;;26.10;73.95;101199.41;5011601;28;20046;-45
2023/09/06 09:05:25;;;;;;;25.58;9.90;;;;;;;26.56;71.03;101195.47;5012052;28;20038;-45
2023/09/06 09:08:00;;;;;;;16.00;8.88;;;;;;;27.22;70.00;101194.94;5012941;28;20112;-46
2023/09/06 09:10:31;;;;;;;18.35;9.48;;;;;;;27.88;63.84;101202.78;5012105;28;20058;-46
2023/09/06 09:13:00;;;;;;;15.45;8.35;;;;;;;28.29;61.36;101197.03;5012238;28;20411;-45
2023/09/06 09:15:33;;;;;;;16.98;8.00;;;;;;;28.65;60.60;101205.22;5010417;28;20054;-45
2023/09/06 09:18:12;;;;;;;17.23;8.00;;;;;;;29.08;60.19;101198.84;5012557;28;20053;-46
2023/09/06 09:20:43;;;;;;;11.18;7.20;;;;;;;29.60;55.85;101198.16;5012463;28;20049;-46
2023/09/06 09:23:14;;;;;;;12.40;6.70;;;;;;;29.80;55.48;101198.66;5011963;28;20080;-44
2023/09/06 09:25:51;;;;;;;13.85;7.13;;;;;;;30.18;54.75;101195.53;5010439;28;20050;-47
2023/09/06 09:28:18;;;;;;;16.48;6.80;;;;;;;30.38;51.92;101192.28;5011338;28;20463;-45
2023/09/06 09:30:46;;;;;;;15.80;6.63;;;;;;;30.33;51.14;101190.00;5012840;28;20048;-48
2023/09/06 09:33:14;;;;;;;12.20;4.93;;;;;;;30.42;50.63;101195.78;5012677;28;20060;-46
2023/09/06 09:35:41;;;;;;;8.90;4.40;;;;;;;30.55;49.63;101205.81;5011509;28;20053;-47
2023/09/06 09:38:10;;;;;;;9.98;4.20;;;;;;;30.84;49.33;101204.63;5013968;28;20069;-46
2023/09/06 09:40:37;;;;;;;10.55;4.40;;;;;;;31.22;48.22;101200.06;5012319;28;20510;-44
2023/09/06 09:43:07;;;;;;;8.77;3.90;;;;;;;31.51;47.76;101205.31;5011221;28;20041;-45
2023/09/06 09:45:40;;;;;;;7.47;2.45;;;;;;;31.80;47.60;101202.72;5011372;28;20491;-46
2023/09/06 09:48:08;;;;;;;3.80;1.30;;;;;;;32.25;45.13;101206.75;5007291;28;20038;-48
2023/09/06 09:50:36;;;;;;;2.35;1.13;;;;;;;32.45;44.58;101204.91;5012240;28;20046;-46
2023/09/06 09:53:07;;;;;;;3.47;1.65;;;;;;;32.60;44.02;101205.00;5011520;28;20488;-46
2023/09/06 09:55:49;;;;;;;3.70;1.13;;;;;;;32.58;43.62;101196.09;5015467;28;20586;-40
2023/09/06 09:58:19;;;;;;;5.97;1.30;;;;;;;32.08;44.03;101199.81;5011734;28;20046;-40
2023/09/06 10:00:50;;;;;;;5.63;1.00;;;;;;;31.23;44.85;101200.88;5009309;28;20042;-39
2023/09/06 10:03:18;;;;;;;3.58;1.13;;;;;;;30.12;46.31;101208.81;5011190;28;20054;-44
2023/09/06 10:05:47;;;;;;;4.72;1.00;;;;;;;29.76;47.45;101191.47;5013203;28;20151;-45
2023/09/06 10:08:17;;;;;;;5.20;0.73;;;;;;;29.89;47.71;101184.41;5012052;28;20054;-50
2023/09/06 10:10:45;;;;;;;1.65;0.60;;;;;;;30.51;46.31;101190.91;5010528;28;20455;-45
2023/09/06 10:13:14;;;;;;;3.65;0.88;;;;;;;30.91;45.17;101190.00;5011678;28;20045;-53
2023/09/06 10:15:51;;;;;;;2.75;0.90;;;;;;;30.61;46.10;101192.50;5008380;28;20413;-45
2023/09/06 10:18:18;;;;;;;4.38;1.00;;;;;;;29.80;46.39;101195.00;4997449;28;20522;-48
2023/09/06 10:20:46;;;;;;;5.00;0.90;;;;;;;28.62;48.48;101188.28;5012286;28;20499;-46
2023/09/06 10:23:14;;;;;;;7.40;1.25;;;;;;;27.65;50.60;101194.53;5011078;28;20112;-45
2023/09/06 10:25:43;;;;;;;5.28;1.05;;;;;;;26.92;52.25;101198.22;5009455;28;20892;-47
2023/09/06 10:28:13;;;;;;;2.50;1.35;;;;;;;26.18;54.10;101195.19;5005273;28;20048;-53
2023/09/06 10:30:45;;;;;;;3.78;0.70;;;;;;;25.57;55.55;101177.91;5015619;28;20049;-47
2023/09/06 10:33:32;;;;;;;3.83;0.98;;;;;;;25.03;56.68;101183.00;5006200;28;20056;-45
2023/09/06 10:36:11;;;;;;;4.82;0.98;;;;;;;24.70;57.73;101181.94;5011871;28;20172;-46
2023/09/06 10:38:51;;;;;;;9.85;2.00;;;;;;;24.56;58.37;101181.41;5010666;28;20065;-52
2023/09/06 10:41:22;;;;;;;3.67;0.80;;;;;;;24.45;59.41;101175.91;5010599;28;20496;-46
2023/09/06 10:43:54;;;;;;;2.88;1.58;;;;;;;24.40;59.65;101181.25;5010186;28;20046;-47
2023/09/06 10:46:26;;;;;;;2.42;0.82;;;;;;;24.45;59.96;101170.25;5011022;28;21043;-45
2023/09/06 10:49:12;;;;;;;4.13;0.82;;;;;;;24.54;59.54;101169.72;5005655;28;20057;-44
2023/09/06 10:52:03;;;;;;;13.02;2.65;;;;;;;24.68;59.99;101177.94;5008875;28;20100;-46
2023/09/06 10:54:40;;;;;;;5.47;1.92;;;;;;;24.81;60.21;101176.91;5007970;28;20050;-44
2023/09/06 10:57:10;;;;;;;7.68;2.33;;;;;;;24.87;60.41;101170.75;5008580;28;20042;-46
2023/09/06 10:59:39;;;;;;;7.40;3.95;;;;;;;24.87;61.01;101188.56;5007339;28;20052;-45
2023/09/06 11:02:15;;;;;;;8.68;3.65;;;;;;;24.92;61.42;101192.91;5009230;28;20153;-45
2023/09/06 11:04:46;;;;;;;6.68;3.67;;;;;;;25.11;61.97;101192.16;5010418;28;20052;-44
2023/09/06 11:07:13;;;;;;;6.65;3.67;;;;;;;25.23;62.33;101183.03;5007958;28;20511;-44
2023/09/06 11:09:43;;;;;;;7.43;3.97;;;;;;;25.29;62.37;101186.94;5010314;28;20527;-45
2023/09/06 11:12:12;;;;;;;11.53;3.17;;;;;;;25.20;61.96;101181.06;5010734;28;20046;-52
2023/09/06 11:14:46;;;;;;;7.35;2.88;;;;;;;25.10;62.32;101176.41;5010291;28;20050;-46
2023/09/06 11:17:21;;;;;;;8.63;2.28;;;;;;;25.02;62.19;101172.09;5013600;28;20041;-47
2023/09/06 11:19:48;;;;;;;6.03;2.50;;;;;;;25.05;62.50;101172.03;5014905;28;20048;-45
2023/09/06 11:22:16;;;;;;;6.68;2.58;;;;;;;25.07;62.08;101160.28;5009553;28;20049;-49
2023/09/06 11:24:43;;;;;;;3.22;2.53;;;;;;;25.11;62.00;101160.97;5008398;28;20046;-44
2023/09/06 11:27:22;;;;;;;7.05;2.80;;;;;;;25.12;62.24;101169.06;5006906;28;20057;-48
2023/09/06 11:29:59;;;;;;;6.68;2.05;;;;;;;25.09;62.89;101160.63;5010427;28;20041;-44